Home > Products > Valid Products > TAF

000
FTUS43 KMPX 220200 AAA
TAFMSP
TAF AMD
KMSP 220246Z 2203/2306 VRB03KT P6SM SKC
     FM221400 24006KT P6SM SKC
     FM230100 17005KT P6SM SKC=



000
FTUS43 KMPX 212300
TAFMSP
TAF
KMSP 212325Z 2200/2306 33009KT P6SM FEW045
     FM220200 VRB03KT P6SM SKC
     FM221400 24006KT P6SM SKC
     FM230100 17005KT P6SM SKC=



000
FTUS43 KMPX 212300
TAFSTC
TAF
KSTC 212325Z 2200/2224 32006KT P6SM FEW040
     FM220200 VRB03KT P6SM SKC
     FM221200 23005KT P6SM SKC
     FM221700 25008KT P6SM SKC=



000
FTUS43 KMPX 212300
TAFEAU
TAF
KEAU 212325Z 2200/2224 33009KT P6SM FEW040
     FM220300 VRB03KT P6SM SKC
     FM220900 00000KT 2SM BR SCT007
      TEMPO 2210/2212 1/2SM FG OVC007
     FM221300 27006KT P6SM SKC=



000
FTUS43 KMPX 212300
TAFRWF
TAF
KRWF 212325Z 2200/2224 33006KT P6SM SCT040
     FM220200 VRB03KT P6SM SKC
     FM221000 23004KT P6SM SKC=



000
FTUS43 KMPX 212300
TAFAXN
TAF
KAXN 212325Z 2200/2224 33008KT P6SM FEW030
     FM220200 VRB02KT P6SM SKC
     FM221200 23005KT P6SM SKC
     FM221700 23008KT P6SM SKC=



000
FTUS43 KMPX 212000 AAA
TAFMSP
TAF AMD
KMSP 212045Z 2121/2224 33012G21KT P6SM SCT045
     FM220200 VRB03KT P6SM SKC
     FM221400 25005KT P6SM SKC=



000
FTUS43 KMPX 211700
TAFMSP
TAF
KMSP 211737Z 2118/2224 33012KT P6SM SCT025 BKN040
     FM212000 33010KT P6SM SCT045
     FM220200 VRB03KT P6SM SKC
     FM221400 25005KT P6SM SKC=



000
FTUS43 KMPX 211700
TAFRWF
TAF
KRWF 211737Z 2118/2218 33012KT P6SM BKN025
     FM212000 34010KT P6SM SCT030
     FM220200 VRB03KT P6SM SKC
     FM221000 23004KT P6SM SKC=



000
FTUS43 KMPX 211700
TAFEAU
TAF
KEAU 211737Z 2118/2218 33010G17KT P6SM SCT035
     FM212000 34010KT P6SM FEW040
     FM220300 VRB03KT P6SM SKC
     FM221200 26006KT P6SM SKC=



000
FTUS43 KMPX 211700
TAFSTC
TAF
KSTC 211737Z 2118/2218 34008G15KT P6SM BKN040
     FM212000 34009KT P6SM SCT040
     FM220200 VRB03KT P6SM SKC
     FM221200 23005KT P6SM SKC=



000
FTUS43 KMPX 211700
TAFAXN
TAF
KAXN 211737Z 2118/2218 33011KT P6SM BKN020
     FM212000 34012KT P6SM SCT030
     FM212200 33008KT P6SM FEW040
     FM220200 VRB02KT P6SM SKC
     FM221200 23005KT P6SM SKC=



000
FTUS43 KMPX 211600 AAA
TAFAXN
TAF AMD
KAXN 211604Z 2116/2212 33014G18KT P6SM BKN020
     FM211900 34013G19KT P6SM BKN070
     FM212200 33008KT P6SM FEW090
     FM220200 VRB02KT P6SM SKC=



000
FTUS43 KMPX 211500 AAA
TAFEAU
TAF AMD
KEAU 211517Z 2115/2212 36012G20KT P6SM SCT030
      TEMPO 2115/2118 BKN025
     FM212000 34010KT P6SM SCT025 BKN040
     FM220000 34005KT P6SM SCT045
     FM220300 VRB03KT P6SM SKC=



000
FTUS43 KMPX 211400 AAA
TAFMSP
TAF AMD
KMSP 211454Z 2115/2218 33013G20KT P6SM SCT025 BKN040
      TEMPO 2115/2118 BKN025
     FM212000 33009KT P6SM SCT045
     FM220200 VRB03KT P6SM SKC
     FM221400 26006KT P6SM SKC=



000
FTUS43 KMPX 211200 CCA
TAFMSP
TAF COR
KMSP 211229Z 2112/2218 34013G20KT P6SM SCT020 BKN045
      TEMPO 2112/2115 BKN020
     FM212100 33009KT P6SM SCT045
     FM220200 VRB03KT P6SM SKC
     FM221400 26006KT P6SM SKC=



000
FTUS43 KMPX 211100 RRA
TAFEAU
TAF
KEAU 211139Z 2112/2212 30011KT P6SM -SHRA OVC014
     FM211600 35012G19KT P6SM BKN020 OVC040
     FM212000 34010KT P6SM SCT025 BKN040
     FM220000 34005KT P6SM SCT045
     FM220300 VRB03KT P6SM SKC=



000
FTUS43 KMPX 211100 RRA
TAFMSP
TAF
KMSP 211139Z 2112/2218 32014G22KT P6SM BKN020
     FM211500 34013G20KT P6SM BKN035
     FM212200 33007KT P6SM SCT045
     FM220200 VRB03KT P6SM SKC
     FM221400 26006KT P6SM SKC=



000
FTUS43 KMPX 211100 RRA
TAFRWF
TAF
KRWF 211139Z 2112/2212 33011G17KT P6SM SCT025
     FM211500 33014G22KT P6SM SCT040
     FM212000 34010KT P6SM SCT080
     FM220200 VRB03KT P6SM SKC=



000
FTUS43 KMPX 211100 RRA
TAFSTC
TAF
KSTC 211139Z 2112/2212 32010KT P6SM SCT025 OVC040
      TEMPO 2112/2116 BKN025
     FM211600 34013G20KT P6SM SCT040 BKN070
     FM212000 34009KT P6SM SCT080
     FM220200 VRB03KT P6SM SKC=



000
FTUS43 KMPX 211100 RRA
TAFAXN
TAF
KAXN 211139Z 2112/2212 30010KT P6SM SCT008 BKN025
      TEMPO 2112/2115 BKN008
     FM211600 33014G21KT P6SM SCT025 BKN050
     FM211900 34013G19KT P6SM SCT070
     FM212200 33008KT P6SM FEW090
     FM220200 VRB02KT P6SM SKC=



000
FTUS43 KMPX 210900 AAA
TAFMSP
TAF AMD
KMSP 210902Z 2109/2212 32014G22KT P6SM SCT025 BKN040
      TEMPO 2110/2114 BKN025
     FM211400 33012KT P6SM BKN035
     FM212200 33009KT P6SM SCT045
     FM220100 34006KT P6SM FEW045=



000
FTUS43 KMPX 210500
TAFMSP
TAF
KMSP 210523Z 2106/2212 29010KT P6SM SCT040 BKN060
     FM211300 33013G20KT P6SM SCT025 OVC040
      TEMPO 2114/2117 BKN025
     FM211700 33012KT P6SM BKN035
     FM212200 33009KT P6SM SCT045
     FM220100 34006KT P6SM FEW045=



000
FTUS43 KMPX 210500
TAFEAU
TAF
KEAU 210523Z 2106/2206 28009KT P6SM SCT020 OVC040
      TEMPO 2106/2108 -DZ BKN020
     FM210800 28008KT P6SM -DZ SCT007 OVC018
     FM211000 30009KT P6SM -RA BKN007 OVC014
     FM211600 34011KT P6SM BKN020 OVC040
     FM211800 35010KT P6SM SCT025 BKN040
     FM212300 34005KT P6SM SCT045=



000
FTUS43 KMPX 210500
TAFAXN
TAF
KAXN 210523Z 2106/2206 30010KT P6SM SCT060 BKN080
     FM211300 33012KT P6SM BKN060
     FM211900 34010KT P6SM SCT070
     FM220100 33003KT P6SM SKC=



000
FTUS43 KMPX 210500
TAFRWF
TAF
KRWF 210523Z 2106/2206 29009KT P6SM SCT070 BKN110
     FM211300 33011G17KT P6SM BKN070
     FM212000 34009KT P6SM SCT080
     FM220100 35003KT P6SM SKC=



000
FTUS43 KMPX 210500
TAFSTC
TAF
KSTC 210523Z 2106/2206 29010KT P6SM SCT040 BKN070
     FM211300 33012KT P6SM SCT025 OVC040
      TEMPO 2113/2117 BKN025
     FM212000 34010KT P6SM SCT060
     FM220100 34003KT P6SM SKC=



000
FTUS43 KMPX 210200 AAA
TAFMSP
TAF AMD
KMSP 210253Z 2103/2206 25008KT P6SM SKC
     FM210600 29010KT P6SM SCT060
     FM211300 33013G20KT P6SM BKN030
     FM211700 33012KT P6SM BKN045=



000
FTUS43 KMPX 210200 AAA
TAFEAU
TAF AMD
KEAU 210200Z 2102/2124 29009KT P6SM SCT020 BKN045
     FM210800 29007KT P6SM BKN015
     FM211500 34009KT P6SM -RA OVC020
     FM211800 35010KT P6SM BKN035=



000
FTUS43 KMPX 210100 AAA
TAFRWF
TAF AMD
KRWF 210159Z 2102/2124 29007KT P6SM SKC
     FM210800 30012KT P6SM SCT060
     FM211400 34012G18KT P6SM BKN045=



000
FTUS43 KMPX 210000 AAA
TAFAXN
TAF AMD
KAXN 210055Z 2101/2124 32011KT P6SM SCT035
      TEMPO 2102/2104 4SM SHRA BKN035
     FM210500 32009KT P6SM SCT020
     FM211300 33012KT P6SM BKN020
     FM211700 34010KT P6SM BKN035=



000
FTUS43 KMPX 202300
TAFEAU
TAF
KEAU 202333Z 2100/2124 30012KT 6SM -SHRA SCT020 OVC040
      TEMPO 2100/2101 30020G35KT 1 1/2SM TSRA OVC020CB
     FM210200 31010KT P6SM SCT020 OVC040
     FM210800 29006KT P6SM BKN015
     FM211500 34009KT P6SM -RA OVC020
     FM211800 35010KT P6SM BKN035=



000
FTUS43 KMPX 202300
TAFSTC
TAF
KSTC 202333Z 2100/2124 30010G18KT P6SM SCT040
     FM210400 30010KT P6SM SCT025
     FM211200 33012KT P6SM BKN020
     FM211700 34010KT P6SM BKN035=



000
FTUS43 KMPX 202300
TAFRWF
TAF
KRWF 202333Z 2100/2124 33012G20KT P6SM SCT050
     FM210400 30012KT P6SM SCT030
     FM211400 34012G18KT P6SM BKN035=



000
FTUS43 KMPX 202300
TAFMSP
TAF
KMSP 202333Z 2100/2206 33012KT P6SM SCT050 OVC080
     FM210200 30012G18KT P6SM SCT040 BKN090
     FM210600 31010KT P6SM SCT030
     FM211300 33012G19KT P6SM BKN030
     FM211700 34012G18KT P6SM BKN045=



000
FTUS43 KMPX 202300
TAFAXN
TAF
KAXN 202333Z 2100/2124 32014G22KT P6SM SCT035
     FM210400 32012KT P6SM SCT020
     FM211300 33012KT P6SM BKN020
     FM211700 34010KT P6SM BKN035=



000
FTUS43 KMPX 202200 AAB
TAFRWF
TAF AMD
KRWF 202220Z 2022/2118 34012G20KT P6SM -SHRA SCT030 OVC060
     FM210000 31009KT P6SM SCT045 BKN120
     FM210400 30008KT P6SM SCT120=



000
FTUS43 KMPX 202200 AAB
TAFSTC
TAF AMD
KSTC 202217Z 2022/2118 30012G20KT P6SM SCT025 OVC045
      TEMPO 2022/2023 2SM SHRA BKN025
     FM210300 31012KT P6SM BKN050
     FM210600 31009KT P6SM SCT100
      TEMPO 2111/2114 BKN020=



000
FTUS43 KMPX 202000 AAA
TAFMSP
TAF AMD
KMSP 202052Z 2021/2124 28012KT P6SM SCT050 BKN200
      TEMPO 2022/2024 30025G45KT 1SM TSRA SCT010 OVC025CB
     FM210200 30013G19KT P6SM SCT030 BKN060
     FM210600 31010KT P6SM SCT060
      TEMPO 2111/2114 BKN020
     FM211500 33012G19KT P6SM SCT050=



000
FTUS43 KMPX 202000 AAA
TAFRWF
TAF AMD
KRWF 202020Z 2020/2118 27012G22KT P6SM BKN050
      TEMPO 2021/2023 30020G45KT 2SM TSRA OVC035CB
     FM210200 31009KT P6SM SCT045 BKN120
     FM210400 30008KT P6SM SCT120=



000
FTUS43 KMPX 202000 AAA
TAFSTC
TAF AMD
KSTC 202018Z 2020/2118 30012G20KT P6SM SCT050
      TEMPO 2021/2022 30025G45KT 2SM TSRA OVC030CB
     FM210300 31012G19KT P6SM BKN050
     FM210600 31009KT P6SM SCT100
      TEMPO 2111/2114 BKN020=



000
FTUS43 KMPX 201700
TAFAXN
TAF
KAXN 201720Z 2018/2118 30015G22KT P6SM SCT040
      TEMPO 2020/2022 2SM TSRA OVC030CB
     FM210300 32010KT P6SM SCT045 BKN100
     FM210600 32007KT P6SM SCT120
      TEMPO 2110/2114 BKN020=



000
FTUS43 KMPX 201700
TAFMSP
TAF
KMSP 201720Z 2018/2124 29011KT P6SM SCT030
     FM202000 29011KT P6SM SCT040 BKN200
      TEMPO 2023/2101 31018G30KT 2SM TSRA OVC030CB
     FM210200 30013G19KT P6SM -SHRA SCT030 BKN060
     FM210600 31010KT P6SM SCT060
      TEMPO 2111/2114 BKN020
     FM211500 33012G19KT P6SM SCT050=



000
FTUS43 KMPX 201700
TAFEAU
TAF
KEAU 201720Z 2018/2118 29010G16KT P6SM SCT030
     FM202200 28007KT P6SM SCT040 BKN060
      TEMPO 2100/2102 2SM TSRA OVC030CB
     FM210600 30010KT P6SM SCT030 BKN050
      TEMPO 2111/2115 BKN020
     FM211500 34009KT P6SM SCT040=



000
FTUS43 KMPX 201700
TAFSTC
TAF
KSTC 201720Z 2018/2118 30012G20KT P6SM SCT050
      TEMPO 2021/2023 2SM TSRA OVC030CB
     FM210300 31012G19KT P6SM BKN050
     FM210600 31009KT P6SM SCT100
      TEMPO 2111/2114 BKN020=



000
FTUS43 KMPX 201700
TAFRWF
TAF
KRWF 201720Z 2018/2118 30012G22KT P6SM SCT050
      TEMPO 2022/2024 3SM TSRA OVC035CB
     FM210200 31009KT P6SM SCT045 BKN120
     FM210400 30008KT P6SM SCT120=



000
FTUS43 KMPX 201400 AAA
TAFMSP
TAF AMD
KMSP 201440Z 2015/2118 29009KT P6SM SCT030
     FM202200 29011KT P6SM BKN045
      TEMPO 2023/2101 2SM TSRA OVC030CB
     FM210200 30013G19KT P6SM -SHRA SCT030 BKN060
     FM210600 31010KT P6SM SCT060
     FM211200 33012G19KT P6SM SCT120=



000
FTUS43 KMPX 201400 AAA
TAFAXN
TAF AMD
KAXN 201414Z 2014/2112 30008KT 5SM BR FEW005 SCT250
      TEMPO 2014/2015 BKN006
     FM201800 30015G22KT P6SM BKN045 OVC080
      TEMPO 2019/2023 2SM TSRA OVC030CB
     FM210300 32010KT P6SM SCT045 BKN100
     FM210600 32007KT P6SM SCT120=



000
FTUS43 KMPX 201200 CCA
TAFAXN
TAF COR
KAXN 201226Z 2012/2112 30008KT 5SM BR FEW005 SCT250
      TEMPO 2012/2014 2SM BR BKN003
     FM201800 30015G22KT P6SM BKN045 OVC080
      TEMPO 2019/2023 2SM TSRA OVC030CB
     FM210300 32010KT P6SM SCT045 BKN100
     FM210600 32007KT P6SM SCT120=



000
FTUS43 KMPX 201100 RRA
TAFSTC
TAF
KSTC 201139Z 2012/2112 30011KT P6SM FEW012 SCT250
      TEMPO 2012/2014 BKN012
     FM201800 28013G20KT P6SM SCT050 BKN100
     FM202000 29013G20KT P6SM BKN045 OVC080
      TEMPO 2020/2024 2SM TSRA OVC030CB
     FM210300 31012G19KT P6SM BKN050
     FM210600 31009KT P6SM SCT100=



000
FTUS43 KMPX 201100 RRA
TAFMSP
TAF
KMSP 201139Z 2012/2118 26007KT P6SM SCT120 BKN250
     FM201500 30010KT P6SM SCT050 BKN150
     FM202200 29011KT P6SM BKN045
      TEMPO 2022/2102 2SM TSRA OVC030CB
     FM210200 30013G19KT P6SM -SHRA SCT030 BKN060
     FM210600 31010KT P6SM SCT060
     FM211200 33012G19KT P6SM SCT120=



000
FTUS43 KMPX 201100 RRA
TAFRWF
TAF
KRWF 201139Z 2012/2112 30010KT P6SM SCT250
     FM201800 28014G22KT P6SM SCT060 BKN200
     FM202100 30013G20KT P6SM BKN045 OVC080
      TEMPO 2021/2024 3SM TSRA OVC035CB
     FM210200 31009KT P6SM SCT045 BKN120
     FM210400 30008KT P6SM SCT120=



000
FTUS43 KMPX 201100 RRA
TAFAXN
TAF
KAXN 201139Z 2012/2112 30008KT P6SM FEW012 SCT250
      TEMPO 2012/2014 BKN008
     FM201800 30015G22KT P6SM BKN045 OVC080
      TEMPO 2019/2023 2SM TSRA OVC030CB
     FM210300 32010KT P6SM SCT045 BKN100
     FM210600 32007KT P6SM SCT120=



000
FTUS43 KMPX 201100 RRA
TAFEAU
TAF
KEAU 201139Z 2012/2112 25006KT P6SM SCT015
     FM201500 28010KT P6SM SCT035 SCT250
     FM201800 29010G16KT P6SM BKN045
     FM202200 28007KT 6SM -SHRA SCT040 BKN060
      TEMPO 2100/2104 2SM TSRA OVC030CB
     FM210600 30010KT 6SM -RA SCT030 BKN050=



000
FTUS43 KMPX 200900 AAA
TAFMSP
TAF AMD
KMSP 200912Z 2009/2112 24007KT P6SM BKN250
     FM201300 31010KT P6SM SCT035 BKN250
     FM202300 29012G18KT P6SM BKN045 OVC090
      TEMPO 2023/2101 2SM TSRA OVC030CB
     FM210100 30009KT P6SM SCT050 OVC100=



000
FTUS43 KMPX 200700 AAA
TAFSTC
TAF AMD
KSTC 200724Z 2007/2106 26006KT 6SM BR FEW005
     FM201400 30011KT P6SM BKN035
     FM202200 29013G20KT P6SM BKN045 OVC080
      TEMPO 2022/2024 2SM TSRA OVC030CB
     FM210100 31008KT P6SM BKN050 OVC090=



000
FTUS43 KMPX 200600 CCA
TAFSTC
TAF COR
KSTC 200622Z 2006/2106 VRB02KT 3SM BR SCT003
      TEMPO 2006/2008 1SM BR VV003
     FM200800 29006KT 2SM BR SCT008
     FM201400 30011KT P6SM BKN035
     FM202200 29013G20KT P6SM BKN045 OVC080
      TEMPO 2022/2024 2SM TSRA OVC030CB
     FM210100 31008KT P6SM BKN050 OVC090=



000
FTUS43 KMPX 200500
TAFMSP
TAF
KMSP 200527Z 2006/2112 19005KT P6SM SCT100 BKN250
     FM200800 24005KT 6SM BR FEW030 BKN250
     FM201300 31010KT P6SM SCT035 BKN250
     FM202300 29012G18KT P6SM BKN045 OVC090
      TEMPO 2023/2101 2SM TSRA OVC030CB
     FM210100 30009KT P6SM SCT050 OVC100=



000
FTUS43 KMPX 200500
TAFRWF
TAF
KRWF 200527Z 2006/2106 24006KT P6SM SCT250
      TEMPO 2006/2009 4SM BR
     FM200900 29007KT P6SM SCT120 BKN250
     FM202300 30013G20KT P6SM BKN045 OVC080
      TEMPO 2023/2101 4SM TSRA OVC035CB
     FM210100 31007KT P6SM SCT045 BKN120=



000
FTUS43 KMPX 200500
TAFSTC
TAF
KSTC 200527Z 2006/2106 VRB02KT 1/4SM FG VV002
      TEMPO 2006/2008 1SM BR SCT005
     FM200800 29006KT 2SM BR SCT008
     FM201400 30011KT P6SM BKN035
     FM202200 29013G20KT P6SM BKN045 OVC080
      TEMPO 2022/2024 2SM TSRA OVC030CB
     FM210100 31008KT P6SM BKN050 OVC090=



000
FTUS43 KMPX 200500
TAFEAU
TAF
KEAU 200527Z 2006/2106 19012KT P6SM BKN045 OVC090
     FM201000 25006KT 5SM BR BKN020
     FM201400 29010KT P6SM BKN035
     FM201600 30010G16KT P6SM BKN045
     FM210100 28005KT P6SM BKN050 OVC100
      TEMPO 2101/2103 2SM TSRA OVC030CB=



000
FTUS43 KMPX 200500
TAFAXN
TAF
KAXN 200527Z 2006/2106 24007KT P6SM FEW007 BKN250
     FM200800 30011KT P6SM SCT120 BKN250
     FM201800 30015G22KT P6SM BKN045 OVC080
      TEMPO 2021/2023 2SM TSRA OVC030CB
     FM210100 32010KT P6SM SCT045 BKN100=



000
FTUS43 KMPX 200400 AAB
TAFSTC
TAF AMD
KSTC 200404Z 2004/2024 VRB02KT 1/4SM FG VV002
      TEMPO 2005/2008 3/4SM BR SCT005
     FM200800 29006KT P6SM SCT015 BKN120
     FM201400 30011KT P6SM BKN035
     FM202200 29013G20KT P6SM BKN045 OVC080
      TEMPO 2022/2024 2SM TSRA OVC030CB=



000
FTUS43 KMPX 200200 AAA
TAFMSP
TAF AMD
KMSP 200255Z 2003/2106 19005KT P6SM SCT100 BKN250
     FM200800 24005KT 6SM BR FEW030 BKN250
     FM201300 31010KT P6SM SCT035 BKN250
     FM202300 29012G18KT P6SM BKN045 OVC090
      TEMPO 2023/2102 2SM TSRA OVC030CB=



000
FTUS43 KMPX 200200 AAA
TAFSTC
TAF AMD
KSTC 200208Z 2002/2024 VRB03KT 1SM BR SCT005
      TEMPO 2002/2005 1/2SM FG BKN005
     FM200800 29006KT P6SM SCT015 BKN120
     FM201400 30011KT P6SM BKN035
     FM202200 29013G20KT P6SM BKN045 OVC080
      TEMPO 2022/2024 2SM TSRA OVC030CB=



000
FTUS43 KMPX 192300
TAFSTC
TAF
KSTC 192339Z 2000/2024 21006KT P6SM BKN040 BKN100
      TEMPO 2000/2002 -SHRA
     FM200800 29006KT P6SM SCT015
      TEMPO 2009/2012 4SM BR BKN015
     FM201400 30011KT P6SM BKN035
     FM202200 29013G20KT P6SM BKN045 OVC080
      TEMPO 2022/2024 2SM TSRA OVC030CB=



000
FTUS43 KMPX 192300
TAFEAU
TAF
KEAU 192339Z 2000/2024 19012KT P6SM VCTS BKN045CB OVC090
      TEMPO 2001/2004 5SM TSRA OVC030CB
     FM200400 22007KT P6SM BKN050 OVC100
     FM201000 25006KT 5SM BR BKN020
     FM201400 31010KT P6SM BKN035
     FM201600 30010G16KT P6SM FEW250=



000
FTUS43 KMPX 192300
TAFAXN
TAF
KAXN 192339Z 2000/2024 24008KT P6SM SCT020 BKN100
     FM200800 30011KT P6SM SCT120 BKN250
     FM202100 30015G22KT P6SM BKN045 OVC080
      TEMPO 2021/2024 2SM TSRA OVC030CB=



000
FTUS43 KMPX 192300
TAFRWF
TAF
KRWF 192339Z 2000/2024 23007KT P6SM SCT040 BKN120
      TEMPO 2000/2003 -SHRA BKN040
     FM200900 29007KT P6SM SCT120 BKN250
     FM202300 30013G20KT P6SM BKN045 OVC080
      TEMPO 2023/2024 2SM TSRA OVC030CB=



000
FTUS43 KMPX 192300
TAFMSP
TAF
KMSP 192339Z 2000/2106 35004KT P6SM BKN050 OVC090
      TEMPO 2000/2003 -SHRA
     FM200300 19006KT P6SM SCT060 BKN100
     FM200800 27006KT P6SM FEW030 SCT100 BKN250
     FM201400 31010KT P6SM SCT035 BKN250
     FM202300 29012G18KT P6SM BKN045 OVC090
      TEMPO 2023/2102 2SM TSRA OVC030CB=



000
FTUS43 KMPX 192200 AAA
TAFRWF
TAF AMD
KRWF 192202Z 1922/2018 23010KT P6SM BKN080
     FM200800 26008KT P6SM SCT250
     FM201300 30010KT P6SM SKC=



000
FTUS43 KMPX 192200 AAC
TAFAXN
TAF AMD
KAXN 192201Z 1922/2018 20009KT P6SM SCT013
      TEMPO 1922/1924 BKN013
     FM200000 24008KT P6SM SCT250
     FM200800 30009KT P6SM SKC=



000
FTUS43 KMPX 192100 AAC
TAFSTC
TAF AMD
KSTC 192100Z 1921/2018 18012KT P6SM BKN027 OVC035
      TEMPO 1921/1923 SCT027 BKN035
     FM192300 21010KT P6SM SCT035 BKN150
     FM200600 28008KT P6SM SKC
     FM201500 30010KT P6SM FEW250=



000
FTUS43 KMPX 192000 AAA
TAFMSP
TAF AMD
KMSP 192050Z 1921/2024 19013G20KT P6SM SCT025 BKN040
     FM200100 20009KT P6SM SCT040 BKN080
     FM200900 27008KT P6SM SCT250
     FM201400 30010KT P6SM SCT250
     FM202200 29011G20KT P6SM BKN050=



000
FTUS43 KMPX 191900 AAB
TAFAXN
TAF AMD
KAXN 191931Z 1920/2018 20010KT 3SM -SHRA BR BKN005 OVC010
     FM192100 22009KT P6SM BKN015
     FM192230 24008KT P6SM SCT250
     FM200800 30009KT P6SM SKC=



000
FTUS43 KMPX 191900 AAB
TAFSTC
TAF AMD
KSTC 191931Z 1920/2018 18012KT 3SM -SHRA BR BKN007 OVC012
     FM192100 20011KT P6SM BKN015
     FM200000 21010KT P6SM SCT025 BKN150
     FM200600 28008KT P6SM SKC
     FM201500 30010KT P6SM FEW250=



000
FTUS43 KMPX 191800 AAA
TAFAXN
TAF AMD
KAXN 191838Z 1919/2018 17012KT 3SM BR BKN005 OVC010
     FM191930 20011KT P6SM BKN012
     FM192100 22010KT P6SM SCT015 BKN100
     FM200000 24008KT P6SM SCT250
     FM200800 30009KT P6SM SKC=



000
FTUS43 KMPX 191800 AAA
TAFSTC
TAF AMD
KSTC 191837Z 1919/2018 18012KT 3SM BR BKN007 OVC012
     FM191930 20011KT P6SM BKN015
     FM192200 21010KT P6SM SCT025 BKN150
     FM200600 28008KT P6SM SKC
     FM201500 30010KT P6SM FEW250=



000
FTUS43 KMPX 191700
TAFEAU
TAF
KEAU 191739Z 1918/2018 18018G23KT P6SM SCT025 BKN050
     FM200100 19012KT P6SM BKN025 OVC045
     FM200600 23008KT P6SM SCT050 BKN100
     FM201200 29009KT P6SM FEW250=



000
FTUS43 KMPX 191700
TAFSTC
TAF
KSTC 191739Z 1918/2018 18014G22KT 6SM BR SCT009 OVC012
     FM191930 20013G20KT P6SM BKN020
     FM192200 21010KT P6SM SCT025 BKN150
     FM200600 28008KT P6SM SKC
     FM201500 30010KT P6SM FEW250=



000
FTUS43 KMPX 191700
TAFAXN
TAF
KAXN 191739Z 1918/2018 19014G21KT 6SM BR BKN008 OVC015
     FM191900 21012G20KT P6SM BKN015
     FM192100 22011KT P6SM SCT015 BKN100
     FM200000 24008KT P6SM SCT250
     FM200800 30009KT P6SM SKC=



000
FTUS43 KMPX 191700
TAFRWF
TAF
KRWF 191739Z 1918/2018 19014G20KT P6SM SCT015 BKN150
     FM200000 23010KT P6SM BKN080
     FM200800 26008KT P6SM SCT250
     FM201300 30010KT P6SM SKC=



000
FTUS43 KMPX 191700
TAFMSP
TAF
KMSP 191739Z 1918/2024 18013G20KT P6SM SCT025 BKN040
     FM200100 20011KT P6SM SCT040 BKN080
     FM200900 27008KT P6SM BKN150
     FM201400 30010KT P6SM SCT250
     FM202200 29011KT P6SM BKN050=



000
FTUS43 KMPX 191600 AAB
TAFMSP
TAF AMD
KMSP 191624Z 1916/2018 17013G20KT P6SM SCT030 BKN150
     FM192000 19015G22KT P6SM BKN040
     FM200100 19011KT P6SM SCT040 BKN080
     FM200400 22007KT P6SM SCT020 BKN060
     FM201200 29009KT P6SM FEW050 BKN250=



000
FTUS43 KMPX 191400 AAA
TAFMSP
TAF AMD
KMSP 191452Z 1915/2018 17013G20KT P6SM BKN025 OVC040
     FM192100 19015G22KT P6SM OVC035
     FM200100 19011KT P6SM VCTS SCT040CB BKN080
     FM200400 22007KT P6SM SCT020 BKN060
     FM201200 29009KT P6SM FEW050 BKN250=



000
FTUS43 KMPX 191400 AAA
TAFAXN
TAF AMD
KAXN 191402Z 1914/2012 18017G23KT P6SM BKN015 OVC050
     FM191800 19014G20KT P6SM SCT015 OVC035
     FM192100 21012KT P6SM SCT050
     FM200800 28008KT P6SM SKC=



000
FTUS43 KMPX 191300 AAA
TAFSTC
TAF AMD
KSTC 191353Z 1914/2012 18014G22KT P6SM BKN015 OVC050
     FM192000 20013KT P6SM SCT020 OVC035
     FM200100 21009KT P6SM BKN050
     FM200800 28008KT P6SM BKN250=



000
FTUS43 KMPX 191100 CCA
TAFRWF
TAF COR
KRWF 191147Z 1912/2012 19014G21KT P6SM BKN019 OVC050
     FM191230 19019G24KT P6SM VCSH OVC012
     FM191700 19014G20KT P6SM FEW015 BKN035 OVC250
     FM192100 21012KT P6SM BKN050
     FM200800 28008KT P6SM BKN250=



000
FTUS43 KMPX 191100 RRA
TAFMSP
TAF
KMSP 191142Z 1912/2018 15010KT P6SM SCT050 OVC150
     FM191600 18013G20KT P6SM BKN030 OVC050
     FM191900 19015G22KT P6SM OVC035
     FM200100 19011KT P6SM VCTS BKN040CB OVC080
     FM200400 22007KT P6SM SCT020 BKN060
     FM201200 29009KT P6SM FEW050 BKN250=



000
FTUS43 KMPX 191100 RRA
TAFEAU
TAF
KEAU 191142Z 1912/2012 16007KT P6SM SCT100 BKN250
     FM191500 17014KT P6SM BKN120
     FM191700 18018G23KT P6SM VCSH SCT025 OVC035
     FM200200 19015KT P6SM VCTS BKN025CB OVC045
     FM200600 23008KT P6SM BKN250=



000
FTUS43 KMPX 191100 RRA
TAFAXN
TAF
KAXN 191142Z 1912/2012 19016G22KT P6SM OVC035
     FM191300 18017G23KT P6SM -SHRA OVC025
      TEMPO 1915/1918 OVC012
     FM191800 19014G20KT P6SM VCSH SCT015 OVC035
     FM192100 21012KT P6SM BKN050
     FM200800 28008KT P6SM BKN250=



000
FTUS43 KMPX 191100 RRA
TAFSTC
TAF
KSTC 191142Z 1912/2012 17013G20KT P6SM SCT060 OVC250
     FM191500 18017G24KT P6SM -SHRA BKN015
     FM192000 20013KT P6SM VCSH SCT020 OVC035
     FM200100 21009KT P6SM BKN050
     FM200800 28008KT P6SM BKN250=



000
FTUS43 KMPX 191100 RRA
TAFRWF
TAF
KRWF 191142Z 1912/2012 19019G24KT P6SM SCT020 OVC050
     FM191230 19019G24KT P6SM VCSH OVC015
     FM191700 19014G20KT P6SM FEW015 BKN035 OVC250
     FM192100 21012KT P6SM BKN050
     FM200800 28008KT P6SM BKN250=



000
FTUS43 KMPX 191000 AAA
TAFEAU
TAF AMD
KEAU 191027Z 1910/2006 16007KT P6SM SCT100 BKN250
     FM191400 17014G20KT P6SM SCT008 BKN120
     FM191700 18018G26KT P6SM VCSH SCT025 OVC035
     FM200000 19015KT P6SM VCTS BKN025CB OVC045=



000
FTUS43 KMPX 190800 AAA
TAFMSP
TAF AMD
KMSP 190855Z 1909/2012 15009KT P6SM BKN250
     FM191300 16014KT P6SM FEW030 BKN150
     FM191600 18017G23KT P6SM VCSH BKN030 OVC050
     FM192000 19015G22KT P6SM OVC035
     FM200000 19011KT P6SM VCTS BKN040CB OVC080
     FM200600 22007KT 6SM BR SCT015 BKN060=



000
FTUS43 KMPX 190500
TAFRWF
TAF
KRWF 190521Z 1906/2006 16014KT P6SM BKN100
     FM191100 17015G23KT P6SM SCT015 OVC060
      TEMPO 1911/1914 BKN015
     FM191400 19020G27KT P6SM -SHRA OVC015
     FM191900 20018G25KT P6SM VCSH SCT020 OVC035
     FM200100 21012KT P6SM BKN045=



000
FTUS43 KMPX 190500
TAFEAU
TAF
KEAU 190521Z 1906/2006 15006KT P6SM SCT250
     FM190900 16007KT 5SM BR SCT005
      TEMPO 1909/1912 2SM BR BKN005
     FM191300 17014G20KT P6SM SCT008 BKN120
     FM191700 18018G26KT P6SM VCSH SCT025 OVC035
     FM200000 19015KT P6SM VCTS BKN025CB OVC045=



000
FTUS43 KMPX 190500
TAFMSP
TAF
KMSP 190521Z 1906/2012 15011KT P6SM BKN250
     FM191000 16014KT P6SM FEW025 BKN150
     FM191600 18017G23KT P6SM VCSH BKN030 OVC050
     FM192000 19015G22KT P6SM OVC035
     FM200000 19011KT P6SM VCTS BKN040CB OVC080
     FM200600 22007KT 6SM BR SCT015 BKN060=



000
FTUS43 KMPX 190500
TAFSTC
TAF
KSTC 190521Z 1906/2006 16011KT P6SM BKN200
     FM191200 17013G20KT P6SM SCT015 OVC100
      TEMPO 1912/1915 BKN015
     FM191500 18015G22KT P6SM -SHRA OVC015
     FM192000 20013KT P6SM VCSH SCT020 OVC035
     FM200100 21009KT P6SM BKN045=



000
FTUS43 KMPX 190500
TAFAXN
TAF
KAXN 190521Z 1906/2006 17013KT P6SM BKN150
     FM191000 18016G22KT P6SM SCT011 OVC090
      TEMPO 1910/1913 BKN011
     FM191300 18015G22KT P6SM -SHRA OVC011
     FM191800 19014G20KT P6SM VCSH SCT015 OVC035
     FM192300 21012KT P6SM BKN045=



    US Dept of Commerce
    National Oceanic and Atmospheric Administration
    National Weather Service
    1325 East West Highway
    Silver Spring, MD 20910
    Page Author: NWS Internet Services Team
Disclaimer
Information Quality
Credits
Glossary
Privacy Policy
Freedom of Information Act (FOIA)
About Us
Career Opportunities